This is the latest recevied weather packets stored in our database for station/object OH2TI. If no packets are shown the sender has not sent any weather packets the latest 10 day(s).
| Time | Temp. | Humidity | Pressure | Rain* | Wind** | Luminosity | Snow |
|---|---|---|---|---|---|---|---|
| 1777698445 | 8.89° C | 73% | 1008.2 hPa | - | - | - | - |
| 1777697955 | 8.89° C | 73% | 1008.2 hPa | - | - | - | - |
| 1777697500 | 7.78° C | 77% | 1008.2 hPa | - | - | - | - |
| 1777697175 | 7.22° C | 78% | 1008.2 hPa | - | - | - | - |
| 1777696370 | 6.67° C | 80% | 1008.3 hPa | - | - | - | - |
| 1777695667 | 6.67° C | 81% | 1008.4 hPa | - | - | - | - |
| 1777695050 | 6.67° C | 82% | 1008.4 hPa | - | - | - | - |
| 1777694523 | 6.67° C | 83% | 1008.5 hPa | - | - | - | - |
| 1777693775 | 6.11° C | 86% | 1008.4 hPa | - | - | - | - |
| 1777693050 | 5.56° C | 86% | 1008.5 hPa | - | - | - | - |
| 1777692720 | 5.56° C | 86% | 1008.4 hPa | - | - | - | - |
| 1777691895 | 5.56° C | 87% | 1008.4 hPa | - | - | - | - |
| 1777691400 | 5.56° C | 88% | 1008.4 hPa | - | - | - | - |
| 1777691090 | 5.56° C | 88% | 1008.5 hPa | - | - | - | - |
| 1777690540 | 5° C | 89% | 1008.5 hPa | - | - | - | - |
| 1777690025 | 5° C | 90% | 1008.7 hPa | - | - | - | - |
| 1777689413 | 5° C | 90% | 1008.7 hPa | - | - | - | - |
| 1777689013 | 5° C | 90% | 1008.9 hPa | - | - | - | - |
| 1777688690 | 5° C | 89% | 1008.9 hPa | - | - | - | - |
| 1777688000 | 5° C | 90% | 1009.2 hPa | - | - | - | - |
| 1777687663 | 5° C | 90% | 1009.2 hPa | - | - | - | - |
| 1777686920 | 5° C | 89% | 1009.3 hPa | - | - | - | - |
| 1777686095 | 5° C | 88% | 1009.5 hPa | - | - | - | - |
| 1777685790 | 5° C | 88% | 1009.4 hPa | - | - | - | - |
| 1777685330 | 5° C | 88% | 1009.3 hPa | - | - | - | - |
* Rain since midnight (hover to see other rain measurements)
** Current wind speed in m/s (hover to see current wind gust speed)